Terminal Aerodrome Forecast
Issued by NWS Buffalo, NY

Home | Current Version | Previous Version | Text Only | Print | Product List | Glossary On
Versions: 1 2 3 4 5 6 7 8 9 10 11 12 13 14 15 16 17 18 19 20 21 22 23 24 25 26 27 28 29
588
FTUS41 KBUF 110530
TAFBUF
TAF
KBUF 110530Z 1106/1206 27012G18KT P6SM VCSH BKN060
     FM111100 29014KT P6SM BKN040
     FM111400 29015KT P6SM VCSH BKN040
     FM112200 29013KT P6SM BKN060
     FM120300 27007KT P6SM SCT060=

USA.gov is the U.S. government's official web portal to all federal, state and local government web resources and services.